Time;durP1;ratioP1;P1;durP2;ratioP2;P2;SDS_P1;SDS_P2;PMS_P1;PMS_P2;Temp;Humidity;BMP_temperature;BMP_pressure;BME280_temperature;BME280_humidity;BME280_pressure;Samples;Min_cycle;Max_cycle;Signal;HPM_P1;HPM_P2
2024/02/15 00:00:29;;;;;;;6.65;3.28;;;;;;;;;;5071621;28;20048;-64
2024/02/15 00:02:56;;;;;;;7.18;4.18;;;;;;;;;;5073938;28;20024;-62
2024/02/15 00:05:22;;;;;;;4.57;3.22;;;;;;;;;;5071088;28;20020;-64
2024/02/15 00:07:48;;;;;;;4.30;3.20;;;;;;;;;;5071306;28;20023;-63
2024/02/15 00:10:14;;;;;;;7.18;3.75;;;;;;;;;;5075661;28;20023;-65
2024/02/15 00:12:40;;;;;;;4.70;3.88;;;;;;;;;;5072305;28;20466;-63
2024/02/15 00:15:06;;;;;;;7.28;3.28;;;;;;;;;;5070622;28;20025;-63
2024/02/15 00:17:32;;;;;;;9.45;3.60;;;;;;;;;;5067243;28;20045;-64
2024/02/15 00:20:00;;;;;;;8.40;3.88;;;;;;;;;;5068497;28;20029;-63
2024/02/15 00:22:26;;;;;;;6.60;4.10;;;;;;;;;;5050427;28;20024;-64
2024/02/15 00:24:53;;;;;;;4.28;2.97;;;;;;;;;;5067182;28;20029;-63
2024/02/15 00:27:20;;;;;;;5.40;3.90;;;;;;;;;;5066971;28;20119;-63
2024/02/15 00:29:45;;;;;;;6.13;3.17;;;;;;;;;;5067377;28;20386;-63
2024/02/15 00:32:11;;;;;;;4.32;3.65;;;;;;;;;;5068008;28;20078;-63
2024/02/15 00:34:41;;;;;;;6.20;4.38;;;;;;;;;;5068596;28;20509;-63
2024/02/15 00:37:07;;;;;;;5.00;4.03;;;;;;;;;;5070479;28;20370;-62
2024/02/15 00:39:33;;;;;;;5.47;3.70;;;;;;;;;;5072233;28;20100;-64
2024/02/15 00:42:03;;;;;;;5.43;3.97;;;;;;;;;;5069857;28;20111;-64
2024/02/15 00:44:29;;;;;;;11.40;4.20;;;;;;;;;;5070943;28;20045;-63
2024/02/15 00:46:55;;;;;;;11.00;5.10;;;;;;;;;;5071745;28;20047;-64
2024/02/15 00:49:22;;;;;;;10.90;5.30;;;;;;;;;;5070584;28;20036;-63
2024/02/15 00:51:48;;;;;;;6.88;4.57;;;;;;;;;;5070497;28;20108;-64
2024/02/15 00:54:14;;;;;;;8.15;4.53;;;;;;;;;;5067303;28;20109;-64
2024/02/15 00:56:40;;;;;;;11.45;5.13;;;;;;;;;;5070684;28;20497;-63
2024/02/15 00:59:06;;;;;;;11.68;5.45;;;;;;;;;;5072831;28;20072;-64
2024/02/15 01:01:32;;;;;;;13.68;5.65;;;;;;;;;;5070226;28;20386;-63
2024/02/15 01:03:58;;;;;;;8.88;4.75;;;;;;;;;;5070393;28;20021;-64
2024/02/15 01:06:24;;;;;;;8.02;5.03;;;;;;;;;;5073064;28;20517;-64
2024/02/15 01:08:51;;;;;;;13.48;4.93;;;;;;;;;;5072509;28;20056;-64
2024/02/15 01:11:17;;;;;;;9.63;4.93;;;;;;;;;;5068770;28;20025;-63
2024/02/15 01:13:44;;;;;;;10.80;4.93;;;;;;;;;;5072067;28;21266;-63
2024/02/15 01:16:10;;;;;;;13.90;4.82;;;;;;;;;;5070039;28;20390;-63
2024/02/15 01:18:37;;;;;;;8.52;4.53;;;;;;;;;;5069801;28;20479;-62
2024/02/15 01:21:03;;;;;;;12.90;5.25;;;;;;;;;;5065454;28;20043;-62
2024/02/15 01:23:29;;;;;;;12.52;4.25;;;;;;;;;;5069772;28;20103;-62
2024/02/15 01:25:55;;;;;;;16.17;5.47;;;;;;;;;;5050429;28;20108;-63
2024/02/15 01:28:22;;;;;;;28.48;6.03;;;;;;;;;;5071716;28;20044;-62
2024/02/15 01:30:48;;;;;;;16.85;6.60;;;;;;;;;;5077790;28;20513;-63
2024/02/15 01:33:14;;;;;;;14.63;6.05;;;;;;;;;;5069226;28;20033;-63
2024/02/15 01:35:40;;;;;;;17.25;6.05;;;;;;;;;;5070683;28;20027;-64
2024/02/15 01:38:06;;;;;;;10.88;5.70;;;;;;;;;;5071643;28;20478;-63
2024/02/15 01:40:32;;;;;;;13.90;6.00;;;;;;;;;;5070609;28;20095;-63
2024/02/15 01:43:00;;;;;;;13.30;5.55;;;;;;;;;;5067694;28;20024;-63
2024/02/15 01:45:27;;;;;;;11.75;5.63;;;;;;;;;;5070547;28;20048;-63
2024/02/15 01:47:54;;;;;;;12.50;4.78;;;;;;;;;;5072762;28;20023;-63
2024/02/15 01:50:21;;;;;;;11.77;6.03;;;;;;;;;;5072280;28;20025;-63
2024/02/15 01:52:47;;;;;;;13.73;6.40;;;;;;;;;;5068216;28;20027;-63
2024/02/15 01:55:14;;;;;;;19.17;5.95;;;;;;;;;;5072263;28;20028;-63
2024/02/15 01:57:40;;;;;;;10.68;5.45;;;;;;;;;;5075327;28;20028;-63
2024/02/15 02:00:08;;;;;;;15.70;5.47;;;;;;;;;;5069080;28;20458;-62
2024/02/15 02:02:35;;;;;;;11.00;4.93;;;;;;;;;;5069558;28;20089;-63
2024/02/15 02:05:01;;;;;;;10.85;5.85;;;;;;;;;;5069174;28;20501;-62
2024/02/15 02:07:27;;;;;;;11.63;5.55;;;;;;;;;;5067363;28;20025;-63
2024/02/15 02:09:53;;;;;;;8.63;5.15;;;;;;;;;;5069008;28;20036;-63
2024/02/15 02:12:19;;;;;;;10.90;5.50;;;;;;;;;;5079301;28;20149;-63
2024/02/15 02:14:44;;;;;;;11.02;4.57;;;;;;;;;;5068896;28;20482;-63
2024/02/15 02:17:12;;;;;;;12.25;5.55;;;;;;;;;;5066741;28;20039;-64
2024/02/15 02:19:38;;;;;;;10.80;5.00;;;;;;;;;;5066694;28;20028;-63
2024/02/15 02:22:05;;;;;;;11.77;4.60;;;;;;;;;;5066031;28;20117;-64
2024/02/15 02:24:37;;;;;;;8.45;4.60;;;;;;;;;;5069094;28;20024;-64
2024/02/15 02:27:04;;;;;;;6.00;4.15;;;;;;;;;;5066294;28;20016;-62
2024/02/15 02:29:31;;;;;;;9.95;4.57;;;;;;;;;;5060983;28;20032;-62
2024/02/15 02:31:57;;;;;;;10.90;4.30;;;;;;;;;;5065792;28;20054;-63
2024/02/15 02:34:24;;;;;;;8.07;4.65;;;;;;;;;;5063886;28;20039;-63
2024/02/15 02:36:51;;;;;;;8.10;3.90;;;;;;;;;;5065716;28;20020;-62
2024/02/15 02:39:17;;;;;;;7.53;4.32;;;;;;;;;;5066985;28;20636;-63
2024/02/15 02:41:43;;;;;;;7.40;3.80;;;;;;;;;;5066005;28;20036;-63
2024/02/15 02:44:09;;;;;;;9.05;4.28;;;;;;;;;;5065923;28;20406;-62
2024/02/15 02:46:35;;;;;;;6.88;4.40;;;;;;;;;;5065859;28;20119;-63
2024/02/15 02:49:01;;;;;;;7.85;3.70;;;;;;;;;;5064773;28;20032;-63
2024/02/15 02:51:27;;;;;;;7.68;4.32;;;;;;;;;;5064025;28;20036;-63
2024/02/15 02:53:53;;;;;;;10.13;4.10;;;;;;;;;;5068645;28;20059;-63
2024/02/15 02:56:19;;;;;;;7.13;3.85;;;;;;;;;;5068187;28;20074;-62
2024/02/15 02:58:45;;;;;;;6.45;3.80;;;;;;;;;;5066452;28;20081;-63
2024/02/15 03:01:11;;;;;;;8.00;3.55;;;;;;;;;;5065493;28;20024;-62
2024/02/15 03:03:38;;;;;;;7.45;3.58;;;;;;;;;;5068718;28;20448;-63
2024/02/15 03:06:04;;;;;;;8.48;3.85;;;;;;;;;;5070768;28;20028;-63
2024/02/15 03:08:30;;;;;;;8.70;4.45;;;;;;;;;;5068973;28;20565;-62
2024/02/15 03:10:57;;;;;;;10.02;3.92;;;;;;;;;;5069942;28;20025;-63
2024/02/15 03:13:23;;;;;;;5.85;3.75;;;;;;;;;;5068746;28;20032;-63
2024/02/15 03:15:49;;;;;;;8.00;4.05;;;;;;;;;;5068338;28;20664;-63
2024/02/15 03:18:16;;;;;;;6.95;3.88;;;;;;;;;;5067892;28;20116;-63
2024/02/15 03:20:43;;;;;;;5.75;3.55;;;;;;;;;;5069566;28;20020;-63
2024/02/15 03:23:09;;;;;;;5.68;3.50;;;;;;;;;;5051215;28;20056;-61
2024/02/15 03:25:35;;;;;;;5.20;2.40;;;;;;;;;;5068610;28;20063;-63
2024/02/15 03:28:04;;;;;;;10.68;3.40;;;;;;;;;;5073717;28;20033;-63
2024/02/15 03:30:36;;;;;;;7.60;3.80;;;;;;;;;;5072815;28;20044;-63
2024/02/15 03:33:05;;;;;;;5.10;3.40;;;;;;;;;;5071301;28;20043;-63
2024/02/15 03:35:31;;;;;;;6.38;3.30;;;;;;;;;;5074081;28;20112;-62
2024/02/15 03:37:58;;;;;;;6.25;3.08;;;;;;;;;;5073834;28;20056;-63
2024/02/15 03:40:27;;;;;;;9.50;3.58;;;;;;;;;;5072533;28;20017;-63
2024/02/15 03:42:53;;;;;;;9.48;4.22;;;;;;;;;;5070148;28;20021;-61
2024/02/15 03:45:20;;;;;;;6.63;3.38;;;;;;;;;;5069942;28;20020;-63
2024/02/15 03:47:46;;;;;;;10.43;3.50;;;;;;;;;;5078777;28;20020;-63
2024/02/15 03:50:14;;;;;;;4.65;2.60;;;;;;;;;;5070056;28;20401;-62
2024/02/15 03:52:41;;;;;;;10.18;3.28;;;;;;;;;;5079067;28;20012;-63
2024/02/15 03:55:07;;;;;;;10.18;3.38;;;;;;;;;;5070627;28;20394;-62
2024/02/15 03:57:33;;;;;;;9.32;3.13;;;;;;;;;;5077491;28;20479;-63
2024/02/15 03:59:59;;;;;;;8.02;3.15;;;;;;;;;;5076822;28;20662;-63
2024/02/15 04:02:30;;;;;;;8.30;3.40;;;;;;;;;;5080040;28;20095;-62
2024/02/15 04:04:56;;;;;;;9.60;2.88;;;;;;;;;;5069764;28;20481;-62
2024/02/15 04:07:25;;;;;;;7.20;3.45;;;;;;;;;;5074138;28;20062;-62
2024/02/15 04:09:51;;;;;;;8.85;3.40;;;;;;;;;;5069494;28;20028;-62
2024/02/15 04:12:17;;;;;;;6.57;3.28;;;;;;;;;;5050894;28;20036;-61
2024/02/15 04:14:46;;;;;;;6.50;3.25;;;;;;;;;;5073507;28;20029;-62
2024/02/15 04:17:21;;;;;;;8.80;3.28;;;;;;;;;;5073939;28;20107;-60
2024/02/15 04:19:47;;;;;;;10.93;2.95;;;;;;;;;;5075242;28;20019;-62
2024/02/15 04:22:16;;;;;;;8.55;3.70;;;;;;;;;;5071079;28;20020;-62
2024/02/15 04:24:42;;;;;;;12.05;3.75;;;;;;;;;;5072491;28;20017;-61
2024/02/15 04:27:08;;;;;;;8.95;3.65;;;;;;;;;;5071772;28;20032;-62
2024/02/15 04:29:36;;;;;;;8.13;3.10;;;;;;;;;;5070395;28;20568;-63
2024/02/15 04:32:03;;;;;;;11.52;2.97;;;;;;;;;;5067986;28;20063;-63
2024/02/15 04:34:33;;;;;;;8.15;3.20;;;;;;;;;;5065391;28;20056;-62
2024/02/15 04:36:59;;;;;;;12.63;3.50;;;;;;;;;;5064210;28;20039;-61
2024/02/15 04:39:27;;;;;;;11.43;3.85;;;;;;;;;;5059999;28;20590;-62
2024/02/15 04:41:55;;;;;;;12.68;3.38;;;;;;;;;;5068262;28;20500;-62
2024/02/15 04:44:21;;;;;;;8.15;3.15;;;;;;;;;;5048144;28;20055;-62
2024/02/15 04:46:49;;;;;;;13.05;3.65;;;;;;;;;;5067698;28;20077;-61
2024/02/15 04:49:15;;;;;;;9.60;3.58;;;;;;;;;;5067482;28;20024;-62
2024/02/15 04:51:41;;;;;;;12.25;3.83;;;;;;;;;;5068704;28;20055;-62
2024/02/15 04:54:08;;;;;;;5.68;3.20;;;;;;;;;;5068950;28;20032;-61
2024/02/15 04:56:36;;;;;;;14.55;4.95;;;;;;;;;;5067427;28;20498;-62
2024/02/15 04:59:02;;;;;;;11.70;3.63;;;;;;;;;;5069418;28;20024;-63
2024/02/15 05:01:29;;;;;;;8.45;3.08;;;;;;;;;;5073718;28;20020;-63
2024/02/15 05:03:55;;;;;;;11.48;3.30;;;;;;;;;;5067355;28;20024;-63
2024/02/15 05:06:21;;;;;;;8.63;3.00;;;;;;;;;;5069262;28;20040;-63
2024/02/15 05:08:47;;;;;;;7.40;3.33;;;;;;;;;;5069887;28;20099;-61
2024/02/15 05:11:22;;;;;;;13.65;3.88;;;;;;;;;;5072629;28;20516;-62
2024/02/15 05:13:51;;;;;;;14.45;4.40;;;;;;;;;;5073728;28;20028;-61
2024/02/15 05:16:17;;;;;;;12.98;3.35;;;;;;;;;;5075381;28;20029;-63
2024/02/15 05:18:43;;;;;;;12.88;3.08;;;;;;;;;;5078817;28;20056;-60
2024/02/15 05:21:09;;;;;;;7.57;2.85;;;;;;;;;;5080466;28;20021;-63
2024/02/15 05:23:36;;;;;;;9.40;3.53;;;;;;;;;;5077309;28;20550;-63
2024/02/15 05:26:03;;;;;;;8.43;3.08;;;;;;;;;;5077591;28;20027;-63
2024/02/15 05:28:29;;;;;;;10.00;3.40;;;;;;;;;;5078015;28;20410;-63
2024/02/15 05:31:11;;;;;;;10.73;4.00;;;;;;;;;;5072238;28;20037;-63
2024/02/15 05:33:43;;;;;;;12.00;3.60;;;;;;;;;;5068460;28;20025;-63
2024/02/15 05:36:10;;;;;;;17.35;3.97;;;;;;;;;;5066740;28;20021;-62
2024/02/15 05:38:36;;;;;;;11.48;3.13;;;;;;;;;;5066093;28;20036;-63
2024/02/15 05:41:02;;;;;;;17.35;3.25;;;;;;;;;;5067797;28;20054;-63
2024/02/15 05:43:28;;;;;;;10.48;3.40;;;;;;;;;;5070896;28;20020;-62
2024/02/15 05:45:55;;;;;;;22.92;3.45;;;;;;;;;;5069552;28;20028;-63
2024/02/15 05:48:21;;;;;;;13.50;4.53;;;;;;;;;;5074324;28;20111;-63
2024/02/15 05:50:47;;;;;;;10.05;3.55;;;;;;;;;;5074556;28;20120;-63
2024/02/15 05:53:13;;;;;;;20.83;3.25;;;;;;;;;;5066141;28;20032;-62
2024/02/15 05:55:44;;;;;;;9.73;3.13;;;;;;;;;;5064928;28;20073;-63
2024/02/15 05:58:11;;;;;;;6.80;3.17;;;;;;;;;;5069179;28;20471;-62
2024/02/15 06:00:38;;;;;;;10.00;3.42;;;;;;;;;;5070179;28;20114;-63
2024/02/15 06:03:06;;;;;;;15.93;3.53;;;;;;;;;;5069497;28;20020;-63
2024/02/15 06:05:32;;;;;;;13.23;3.25;;;;;;;;;;5068692;28;20248;-63
2024/02/15 06:07:58;;;;;;;11.95;3.35;;;;;;;;;;5064812;28;20028;-63
2024/02/15 06:10:25;;;;;;;9.25;3.72;;;;;;;;;;5067381;28;20025;-62
2024/02/15 06:12:51;;;;;;;10.93;3.78;;;;;;;;;;5070884;28;20028;-64
2024/02/15 06:15:17;;;;;;;19.15;4.68;;;;;;;;;;5070657;28;20029;-61
2024/02/15 06:17:47;;;;;;;11.85;3.67;;;;;;;;;;5068756;28;20082;-63
2024/02/15 06:20:14;;;;;;;7.72;4.32;;;;;;;;;;5068314;28;20025;-62
2024/02/15 06:22:39;;;;;;;13.25;3.60;;;;;;;;;;5066761;28;20059;-63
2024/02/15 06:25:05;;;;;;;10.30;3.72;;;;;;;;;;5069356;28;20025;-63
2024/02/15 06:27:32;;;;;;;18.40;4.55;;;;;;;;;;5070970;28;20060;-63
2024/02/15 06:40:57;;;;;;;12.88;3.45;;;;;;;;;;5066356;28;19915;-63
2024/02/15 06:43:23;;;;;;;14.13;3.50;;;;;;;;;;5075373;28;20028;-63
2024/02/15 06:45:51;;;;;;;9.52;3.72;;;;;;;;;;5060960;28;20024;-63
2024/02/15 06:48:17;;;;;;;12.77;3.88;;;;;;;;;;5067455;28;20028;-62
2024/02/15 06:50:42;;;;;;;11.15;3.28;;;;;;;;;;5065125;28;20077;-63
2024/02/15 06:53:09;;;;;;;7.03;3.38;;;;;;;;;;5070730;28;20033;-63
2024/02/15 06:55:36;;;;;;;10.43;3.60;;;;;;;;;;5069104;28;20112;-63
2024/02/15 06:58:02;;;;;;;8.30;3.00;;;;;;;;;;5068634;28;20029;-64
2024/02/15 07:00:30;;;;;;;10.18;3.55;;;;;;;;;;5070518;28;20024;-64
2024/02/15 07:02:56;;;;;;;14.35;3.67;;;;;;;;;;5068491;28;20032;-64
2024/02/15 07:05:23;;;;;;;13.00;3.05;;;;;;;;;;5078731;28;20073;-63
2024/02/15 07:07:49;;;;;;;15.05;4.28;;;;;;;;;;5072548;28;20021;-63
2024/02/15 07:10:18;;;;;;;15.05;3.83;;;;;;;;;;5070569;28;20671;-63
2024/02/15 07:12:44;;;;;;;14.48;3.72;;;;;;;;;;5070411;28;20025;-63
2024/02/15 07:15:11;;;;;;;19.80;4.63;;;;;;;;;;5070931;28;20021;-63
2024/02/15 07:17:38;;;;;;;17.08;3.88;;;;;;;;;;5070502;28;20032;-63
2024/02/15 07:20:04;;;;;;;11.75;3.67;;;;;;;;;;5076922;28;20177;-63
2024/02/15 07:22:31;;;;;;;14.45;3.83;;;;;;;;;;5065285;28;20154;-63
2024/02/15 07:24:57;;;;;;;9.13;3.58;;;;;;;;;;5074311;28;20021;-63
2024/02/15 07:27:25;;;;;;;11.35;3.53;;;;;;;;;;5069815;28;20165;-63
2024/02/15 07:29:51;;;;;;;13.57;3.63;;;;;;;;;;5065796;28;20044;-63
2024/02/15 07:32:18;;;;;;;11.80;3.60;;;;;;;;;;5068748;28;20032;-63
2024/02/15 07:34:45;;;;;;;14.23;4.32;;;;;;;;;;5067945;28;20074;-61
2024/02/15 07:37:12;;;;;;;8.00;2.90;;;;;;;;;;5067688;28;20559;-64
2024/02/15 07:39:40;;;;;;;11.20;3.38;;;;;;;;;;5069148;28;20028;-64
2024/02/15 07:42:08;;;;;;;9.63;2.80;;;;;;;;;;5069562;28;20020;-63
2024/02/15 07:44:36;;;;;;;10.85;3.40;;;;;;;;;;5068484;28;20106;-62
2024/02/15 07:47:02;;;;;;;10.80;2.53;;;;;;;;;;5074721;28;20108;-63
2024/02/15 07:49:28;;;;;;;12.40;3.15;;;;;;;;;;5071765;28;20081;-63
2024/02/15 07:51:54;;;;;;;16.77;3.38;;;;;;;;;;5066694;28;20037;-64
2024/02/15 07:54:20;;;;;;;8.55;3.25;;;;;;;;;;5065370;28;20055;-64
2024/02/15 07:56:48;;;;;;;18.98;3.80;;;;;;;;;;5071329;28;20043;-64
2024/02/15 07:59:16;;;;;;;14.23;3.38;;;;;;;;;;5071879;28;20024;-64
2024/02/15 08:01:42;;;;;;;6.45;3.05;;;;;;;;;;5069181;28;20017;-64
2024/02/15 08:04:08;;;;;;;10.55;3.30;;;;;;;;;;5073402;28;20475;-64
2024/02/15 08:06:36;;;;;;;5.65;2.53;;;;;;;;;;5071082;28;20040;-63
2024/02/15 08:09:06;;;;;;;6.20;2.25;;;;;;;;;;5072313;28;20230;-63
2024/02/15 08:11:32;;;;;;;10.00;3.35;;;;;;;;;;5072701;28;20026;-63
2024/02/15 08:14:01;;;;;;;12.13;3.72;;;;;;;;;;5069614;28;20040;-63
2024/02/15 08:16:30;;;;;;;10.82;2.92;;;;;;;;;;5071987;28;20086;-62
2024/02/15 08:18:56;;;;;;;14.45;3.67;;;;;;;;;;5071432;28;20406;-64
2024/02/15 08:21:29;;;;;;;12.82;3.20;;;;;;;;;;5076045;28;20025;-64
2024/02/15 08:23:55;;;;;;;14.65;3.63;;;;;;;;;;5067150;28;20043;-64
2024/02/15 08:26:21;;;;;;;16.63;3.83;;;;;;;;;;5073310;28;20032;-63
2024/02/15 08:28:47;;;;;;;14.30;3.85;;;;;;;;;;5074037;28;20093;-64
2024/02/15 08:31:15;;;;;;;13.63;3.33;;;;;;;;;;5078230;28;20051;-64
2024/02/15 08:33:43;;;;;;;13.90;3.47;;;;;;;;;;5071892;28;20029;-64
2024/02/15 08:36:10;;;;;;;15.07;3.83;;;;;;;;;;5065791;28;20029;-64
2024/02/15 08:38:37;;;;;;;17.70;4.65;;;;;;;;;;5074865;28;20027;-64
2024/02/15 08:41:04;;;;;;;15.48;3.85;;;;;;;;;;5069724;28;20029;-64
2024/02/15 08:43:32;;;;;;;11.85;3.90;;;;;;;;;;5072877;28;20027;-65
2024/02/15 08:45:58;;;;;;;16.40;3.35;;;;;;;;;;5069042;28;20021;-64
2024/02/15 08:48:24;;;;;;;9.27;3.47;;;;;;;;;;5072711;28;20099;-64
2024/02/15 08:50:52;;;;;;;15.77;3.60;;;;;;;;;;5064735;28;20486;-64
2024/02/15 08:53:21;;;;;;;14.40;3.85;;;;;;;;;;5073499;28;20059;-64
2024/02/15 08:55:48;;;;;;;20.15;4.97;;;;;;;;;;5067666;28;20032;-63
2024/02/15 08:58:13;;;;;;;15.32;3.83;;;;;;;;;;5071241;28;20036;-64
2024/02/15 09:00:44;;;;;;;14.98;4.63;;;;;;;;;;5066412;28;20024;-64
2024/02/15 09:03:11;;;;;;;13.35;4.03;;;;;;;;;;5068162;28;20061;-64
2024/02/15 09:05:36;;;;;;;13.82;4.03;;;;;;;;;;5061679;28;20128;-64
2024/02/15 09:08:04;;;;;;;10.63;4.03;;;;;;;;;;5066369;28;20116;-65
2024/02/15 09:10:30;;;;;;;8.77;3.63;;;;;;;;;;5068862;28;20036;-64
2024/02/15 09:12:56;;;;;;;16.50;5.95;;;;;;;;;;5072140;28;20107;-64
2024/02/15 09:15:22;;;;;;;14.88;5.43;;;;;;;;;;5065260;28;20029;-64
2024/02/15 09:17:49;;;;;;;16.35;3.95;;;;;;;;;;5071025;28;20028;-64
2024/02/15 09:20:18;;;;;;;11.82;4.05;;;;;;;;;;5069874;28;20418;-63
2024/02/15 09:22:51;;;;;;;15.65;4.80;;;;;;;;;;5064757;28;20117;-64
2024/02/15 09:25:18;;;;;;;11.40;3.90;;;;;;;;;;5070366;28;20042;-64
2024/02/15 09:27:45;;;;;;;15.02;4.18;;;;;;;;;;5067366;28;20036;-63
2024/02/15 09:30:12;;;;;;;20.55;4.40;;;;;;;;;;5066991;28;20044;-64
2024/02/15 09:32:38;;;;;;;8.75;2.88;;;;;;;;;;5069353;28;20378;-62
2024/02/15 09:35:11;;;;;;;14.95;4.00;;;;;;;;;;5067216;28;20450;-63
2024/02/15 09:37:38;;;;;;;9.50;2.78;;;;;;;;;;5064799;28;20112;-63
2024/02/15 09:40:07;;;;;;;7.30;2.30;;;;;;;;;;5066258;28;20489;-63
2024/02/15 09:42:34;;;;;;;10.55;2.67;;;;;;;;;;5062093;28;20025;-62
2024/02/15 09:45:02;;;;;;;8.77;2.65;;;;;;;;;;5067602;28;20132;-63
2024/02/15 09:47:31;;;;;;;11.05;2.42;;;;;;;;;;5067216;28;20021;-63
2024/02/15 09:49:59;;;;;;;15.32;2.63;;;;;;;;;;5072424;28;20039;-63
2024/02/15 09:52:25;;;;;;;10.18;2.28;;;;;;;;;;5072600;28;20029;-63
2024/02/15 09:54:52;;;;;;;8.38;2.72;;;;;;;;;;5068139;28;20024;-63
2024/02/15 09:57:18;;;;;;;13.82;3.22;;;;;;;;;;5067390;28;20020;-62
2024/02/15 09:59:44;;;;;;;7.32;2.13;;;;;;;;;;5066898;28;20035;-63
2024/02/15 10:02:10;;;;;;;10.32;2.13;;;;;;;;;;5064369;28;20060;-63
2024/02/15 10:04:40;;;;;;;17.58;2.53;;;;;;;;;;5067649;28;20025;-62
2024/02/15 10:07:08;;;;;;;15.93;2.42;;;;;;;;;;5067878;28;20063;-63
2024/02/15 10:09:36;;;;;;;9.52;2.40;;;;;;;;;;5073080;28;20401;-62
2024/02/15 10:12:03;;;;;;;6.15;2.20;;;;;;;;;;5062441;28;20094;-63
2024/02/15 10:14:29;;;;;;;11.05;3.15;;;;;;;;;;5067542;28;20024;-61
2024/02/15 10:16:55;;;;;;;13.68;3.17;;;;;;;;;;5066841;28;20524;-63
2024/02/15 10:19:24;;;;;;;8.90;2.13;;;;;;;;;;5067120;28;20033;-63
2024/02/15 10:21:55;;;;;;;10.40;2.25;;;;;;;;;;5063634;28;20060;-63
2024/02/15 10:24:22;;;;;;;8.07;2.20;;;;;;;;;;5062196;28;20123;-62
2024/02/15 10:26:49;;;;;;;6.35;2.40;;;;;;;;;;5067820;28;20021;-62
2024/02/15 10:29:17;;;;;;;10.45;2.42;;;;;;;;;;5068662;28;20036;-63
2024/02/15 10:31:56;;;;;;;7.85;1.98;;;;;;;;;;5066716;28;20060;-63
2024/02/15 10:34:22;;;;;;;7.97;2.38;;;;;;;;;;5066450;28;20754;-63
2024/02/15 10:36:49;;;;;;;11.30;2.20;;;;;;;;;;5068172;28;20025;-63
2024/02/15 10:39:19;;;;;;;9.25;2.30;;;;;;;;;;5059177;28;20486;-63
2024/02/15 10:41:51;;;;;;;9.63;2.70;;;;;;;;;;5065933;28;20061;-63
2024/02/15 10:44:17;;;;;;;10.55;2.42;;;;;;;;;;5066772;28;20020;-63
2024/02/15 10:46:45;;;;;;;13.43;3.00;;;;;;;;;;5069799;28;20024;-63
2024/02/15 10:49:11;;;;;;;8.93;1.77;;;;;;;;;;5063962;28;20028;-63
2024/02/15 10:51:42;;;;;;;12.32;2.67;;;;;;;;;;5065990;28;20032;-63
2024/02/15 10:54:12;;;;;;;8.65;2.20;;;;;;;;;;5059006;28;20024;-63
2024/02/15 10:56:43;;;;;;;11.57;2.47;;;;;;;;;;5068299;28;20120;-62
2024/02/15 10:59:22;;;;;;;10.27;2.92;;;;;;;;;;5063637;28;20115;-63
2024/02/15 11:01:55;;;;;;;8.45;2.85;;;;;;;;;;5065736;28;20017;-65
2024/02/15 11:04:32;;;;;;;9.65;2.60;;;;;;;;;;5068908;28;20024;-60
2024/02/15 11:06:58;;;;;;;10.55;2.63;;;;;;;;;;5064078;28;20119;-63
2024/02/15 11:09:29;;;;;;;9.48;2.08;;;;;;;;;;5067456;28;20087;-64
2024/02/15 11:11:55;;;;;;;14.60;2.28;;;;;;;;;;5062994;28;20081;-65
2024/02/15 11:14:26;;;;;;;8.15;2.67;;;;;;;;;;5066964;28;20026;-62
2024/02/15 11:16:52;;;;;;;10.95;2.60;;;;;;;;;;5062678;28;20467;-64
2024/02/15 11:19:33;;;;;;;14.00;2.65;;;;;;;;;;5067323;28;20069;-64
2024/02/15 11:22:03;;;;;;;11.40;2.40;;;;;;;;;;5062707;28;20108;-65
2024/02/15 11:24:29;;;;;;;13.52;2.85;;;;;;;;;;5069306;28;20486;-64
2024/02/15 11:27:06;;;;;;;5.53;2.22;;;;;;;;;;5062505;28;20067;-62
2024/02/15 11:29:54;;;;;;;10.07;2.33;;;;;;;;;;5069023;28;20455;-64
2024/02/15 11:32:35;;;;;;;9.30;2.53;;;;;;;;;;5052960;28;20032;-63
2024/02/15 11:35:11;;;;;;;13.23;2.22;;;;;;;;;;5071187;28;20452;-66
2024/02/15 11:37:49;;;;;;;9.07;2.83;;;;;;;;;;5070678;28;20459;-65
2024/02/15 11:40:19;;;;;;;9.77;2.38;;;;;;;;;;5063634;28;20025;-64
2024/02/15 11:42:46;;;;;;;10.18;2.45;;;;;;;;;;5071627;28;20132;-64
2024/02/15 11:45:12;;;;;;;9.55;2.72;;;;;;;;;;5069526;28;21124;-63
2024/02/15 11:47:39;;;;;;;6.32;2.33;;;;;;;;;;5072401;28;20044;-63
2024/02/15 11:50:08;;;;;;;7.82;2.50;;;;;;;;;;5070878;28;20383;-62
2024/02/15 11:52:34;;;;;;;7.60;2.63;;;;;;;;;;5070799;28;20512;-62
2024/02/15 11:55:10;;;;;;;9.93;2.53;;;;;;;;;;5069345;28;20032;-65
2024/02/15 11:57:47;;;;;;;13.32;2.80;;;;;;;;;;5070525;28;20420;-64
2024/02/15 12:19:50;;;;;;;5.70;2.38;;;;;;;;;;5065863;28;20528;-63
2024/02/15 12:22:17;;;;;;;5.72;2.17;;;;;;;;;;5071904;28;20020;-64
2024/02/15 12:24:43;;;;;;;7.47;2.03;;;;;;;;;;5066118;28;20089;-64
2024/02/15 12:27:09;;;;;;;6.68;2.17;;;;;;;;;;5067901;28;20536;-64
2024/02/15 12:29:35;;;;;;;9.05;2.45;;;;;;;;;;5063636;28;20578;-64
2024/02/15 12:32:03;;;;;;;5.88;2.45;;;;;;;;;;5069970;28;20107;-64
2024/02/15 12:34:29;;;;;;;5.65;2.33;;;;;;;;;;5068101;28;20035;-64
2024/02/15 12:37:08;;;;;;;4.13;2.00;;;;;;;;;;5070565;28;20036;-64
2024/02/15 12:39:34;;;;;;;7.80;2.35;;;;;;;;;;5066563;28;20028;-64
2024/02/15 12:42:01;;;;;;;8.25;2.50;;;;;;;;;;5068152;28;20039;-65
2024/02/15 12:44:32;;;;;;;11.35;2.13;;;;;;;;;;5069191;28;20434;-64
2024/02/15 12:47:00;;;;;;;9.77;2.30;;;;;;;;;;5071347;28;20074;-64
2024/02/15 12:49:25;;;;;;;9.48;2.65;;;;;;;;;;5068780;28;20618;-64
2024/02/15 12:51:52;;;;;;;12.32;2.78;;;;;;;;;;5068623;28;20032;-65
2024/02/15 12:54:22;;;;;;;5.22;2.20;;;;;;;;;;5067343;28;20025;-65
2024/02/15 12:56:54;;;;;;;13.27;2.53;;;;;;;;;;5063553;28;20042;-65
2024/02/15 12:59:20;;;;;;;7.95;2.25;;;;;;;;;;5067797;28;20130;-64
2024/02/15 13:01:46;;;;;;;4.97;2.15;;;;;;;;;;5068721;28;20048;-64
2024/02/15 13:04:26;;;;;;;4.65;2.03;;;;;;;;;;5061326;28;20056;-63
2024/02/15 13:06:52;;;;;;;20.25;2.40;;;;;;;;;;5065491;28;20028;-63
2024/02/15 13:09:18;;;;;;;7.57;2.38;;;;;;;;;;5067993;28;20082;-64
2024/02/15 13:11:46;;;;;;;8.32;2.58;;;;;;;;;;5067214;28;20063;-64
2024/02/15 13:14:13;;;;;;;8.95;2.17;;;;;;;;;;5068402;28;20067;-63
2024/02/15 13:16:39;;;;;;;9.27;2.40;;;;;;;;;;5062893;28;20099;-63
2024/02/15 13:19:06;;;;;;;12.80;2.42;;;;;;;;;;5066950;28;20112;-65
2024/02/15 13:21:34;;;;;;;8.82;2.40;;;;;;;;;;5067789;28;20680;-64
2024/02/15 13:24:00;;;;;;;7.85;2.50;;;;;;;;;;5065146;28;20106;-64
2024/02/15 13:26:26;;;;;;;6.18;2.03;;;;;;;;;;5065662;28;20016;-64
2024/02/15 13:28:54;;;;;;;6.50;1.73;;;;;;;;;;5071680;28;20039;-63
2024/02/15 13:31:21;;;;;;;6.97;2.42;;;;;;;;;;5064854;28;20020;-64
2024/02/15 13:33:47;;;;;;;6.15;2.13;;;;;;;;;;5065832;28;20020;-64
2024/02/15 13:36:15;;;;;;;5.80;2.20;;;;;;;;;;5066936;28;20016;-64
2024/02/15 13:38:42;;;;;;;10.07;2.88;;;;;;;;;;5068411;28;20025;-64
2024/02/15 13:41:08;;;;;;;5.70;2.10;;;;;;;;;;5067397;28;20025;-63
2024/02/15 13:43:34;;;;;;;8.82;2.28;;;;;;;;;;5071277;28;20367;-64
2024/02/15 13:46:01;;;;;;;7.50;1.98;;;;;;;;;;5066537;28;20040;-64
2024/02/15 13:48:31;;;;;;;5.25;3.08;;;;;;;;;;5063943;28;20086;-64
2024/02/15 13:50:57;;;;;;;11.85;2.65;;;;;;;;;;5064126;28;20595;-64
2024/02/15 13:53:24;;;;;;;4.32;2.15;;;;;;;;;;5066486;28;20024;-61
2024/02/15 13:55:52;;;;;;;11.10;3.95;;;;;;;;;;5066139;28;20474;-64
2024/02/15 13:58:18;;;;;;;9.07;2.88;;;;;;;;;;5067494;28;20433;-65
2024/02/15 14:00:44;;;;;;;9.70;2.22;;;;;;;;;;5071278;28;20021;-65
2024/02/15 14:03:11;;;;;;;4.70;2.00;;;;;;;;;;5066189;28;20032;-64
2024/02/15 14:05:39;;;;;;;10.23;2.10;;;;;;;;;;5059390;28;20067;-64
2024/02/15 14:08:06;;;;;;;11.70;1.77;;;;;;;;;;5070001;28;20533;-64
2024/02/15 14:10:34;;;;;;;6.47;2.15;;;;;;;;;;5067364;28;20029;-63
2024/02/15 14:13:08;;;;;;;11.80;2.00;;;;;;;;;;5065246;28;20025;-63
2024/02/15 14:15:36;;;;;;;4.70;1.77;;;;;;;;;;5068794;28;20551;-64
2024/02/15 14:18:03;;;;;;;5.88;2.03;;;;;;;;;;5066868;28;20079;-63
2024/02/15 14:20:29;;;;;;;7.93;1.50;;;;;;;;;;5062126;28;20033;-65
2024/02/15 14:22:57;;;;;;;7.78;2.15;;;;;;;;;;5062305;28;20040;-65
2024/02/15 14:25:25;;;;;;;3.90;2.00;;;;;;;;;;5067314;28;20075;-63
2024/02/15 14:27:52;;;;;;;6.10;1.65;;;;;;;;;;5066100;28;20029;-64
2024/02/15 14:33:03;;;;;;;15.50;2.00;;;;;;;;;;5059928;28;20071;-63
2024/02/15 14:35:36;;;;;;;5.22;1.67;;;;;;;;;;5061590;28;20402;-62
2024/02/15 14:38:10;;;;;;;5.20;1.65;;;;;;;;;;5063436;28;20111;-63
2024/02/15 14:40:37;;;;;;;5.40;1.33;;;;;;;;;;5073529;28;20074;-64
2024/02/15 14:43:06;;;;;;;9.45;2.08;;;;;;;;;;5068093;28;20039;-64
2024/02/15 14:45:32;;;;;;;6.82;1.60;;;;;;;;;;5060167;28;20020;-63
2024/02/15 14:47:59;;;;;;;6.28;1.58;;;;;;;;;;5064028;28;20029;-62
2024/02/15 14:50:25;;;;;;;3.95;1.88;;;;;;;;;;5065559;28;20047;-64
2024/02/15 14:52:53;;;;;;;9.52;2.30;;;;;;;;;;5061035;28;20108;-64
2024/02/15 14:55:19;;;;;;;9.18;2.35;;;;;;;;;;5065459;28;20444;-64
2024/02/15 14:57:45;;;;;;;11.95;2.20;;;;;;;;;;5049934;28;20486;-64
2024/02/15 15:00:14;;;;;;;5.20;1.95;;;;;;;;;;5063240;28;20112;-65
2024/02/15 15:02:42;;;;;;;5.22;1.40;;;;;;;;;;5072062;28;20116;-64
2024/02/15 15:13:23;;;;;;;;;;;;;;;;;;5070695;28;20598;-64
2024/02/15 15:15:49;;;;;;;3.38;1.60;;;;;;;;;;5070182;28;19928;-64
2024/02/15 15:18:15;;;;;;;4.22;1.83;;;;;;;;;;5069517;28;20029;-64